sensor_id;sensor_type;location;lat;lon;timestamp;pressure;altitude;pressure_sealevel;temperature;humidity
28606;BME280;46498;49.968;7.754;2023-02-22T00:01:27;96986.00;;;5.99;100.00
28606;BME280;46498;49.968;7.754;2023-02-22T00:06:35;96994.00;;;5.92;100.00
28606;BME280;46498;49.968;7.754;2023-02-22T00:11:35;96979.00;;;5.82;100.00
28606;BME280;46498;49.968;7.754;2023-02-22T00:16:38;96975.00;;;5.81;100.00
28606;BME280;46498;49.968;7.754;2023-02-22T00:21:39;96978.00;;;5.69;100.00
28606;BME280;46498;49.968;7.754;2023-02-22T00:26:40;96967.00;;;5.73;100.00
28606;BME280;46498;49.968;7.754;2023-02-22T00:31:40;96975.00;;;5.74;100.00
28606;BME280;46498;49.968;7.754;2023-02-22T00:36:46;96966.00;;;5.77;100.00
28606;BME280;46498;49.968;7.754;2023-02-22T00:41:47;96970.00;;;5.74;100.00
28606;BME280;46498;49.968;7.754;2023-02-22T00:46:49;96965.00;;;5.58;100.00
28606;BME280;46498;49.968;7.754;2023-02-22T00:51:50;96960.00;;;5.44;100.00
28606;BME280;46498;49.968;7.754;2023-02-22T00:56:50;96952.00;;;5.51;100.00
28606;BME280;46498;49.968;7.754;2023-02-22T01:01:52;96951.00;;;5.38;100.00
28606;BME280;46498;49.968;7.754;2023-02-22T01:06:53;96949.00;;;5.42;100.00
28606;BME280;46498;49.968;7.754;2023-02-22T01:11:55;96938.00;;;5.37;100.00
28606;BME280;46498;49.968;7.754;2023-02-22T01:16:56;96935.00;;;5.36;100.00
28606;BME280;46498;49.968;7.754;2023-02-22T01:21:57;96924.00;;;5.37;100.00
28606;BME280;46498;49.968;7.754;2023-02-22T01:26:58;96922.00;;;5.32;100.00
28606;BME280;46498;49.968;7.754;2023-02-22T01:31:59;96922.00;;;5.25;100.00
28606;BME280;46498;49.968;7.754;2023-02-22T01:37:01;96916.00;;;5.21;100.00
28606;BME280;46498;49.968;7.754;2023-02-22T01:42:02;96915.00;;;5.24;100.00
28606;BME280;46498;49.968;7.754;2023-02-22T01:47:05;96913.00;;;5.23;100.00
28606;BME280;46498;49.968;7.754;2023-02-22T01:52:08;96904.00;;;5.26;100.00
28606;BME280;46498;49.968;7.754;2023-02-22T01:57:24;96897.00;;;5.28;100.00
28606;BME280;46498;49.968;7.754;2023-02-22T02:02:26;96902.00;;;5.26;100.00
28606;BME280;46498;49.968;7.754;2023-02-22T02:07:27;96896.00;;;5.26;100.00
28606;BME280;46498;49.968;7.754;2023-02-22T02:12:33;96898.00;;;5.19;100.00
28606;BME280;46498;49.968;7.754;2023-02-22T02:17:35;96898.00;;;5.21;100.00
28606;BME280;46498;49.968;7.754;2023-02-22T02:29:39;96890.00;;;5.24;100.00
28606;BME280;46498;49.968;7.754;2023-02-22T02:35:11;96881.00;;;4.99;100.00
28606;BME280;46498;49.968;7.754;2023-02-22T02:40:20;96877.00;;;4.82;100.00
28606;BME280;46498;49.968;7.754;2023-02-22T02:45:29;96873.00;;;4.85;100.00
28606;BME280;46498;49.968;7.754;2023-02-22T02:50:37;96876.00;;;5.01;100.00
28606;BME280;46498;49.968;7.754;2023-02-22T02:55:41;96877.00;;;4.99;100.00
28606;BME280;46498;49.968;7.754;2023-02-22T03:00:42;96878.00;;;5.03;100.00
28606;BME280;46498;49.968;7.754;2023-02-22T03:08:54;96863.00;;;5.04;100.00
28606;BME280;46498;49.968;7.754;2023-02-22T03:14:17;96863.00;;;5.06;100.00
28606;BME280;46498;49.968;7.754;2023-02-22T03:19:30;96852.00;;;5.11;100.00
28606;BME280;46498;49.968;7.754;2023-02-22T03:24:44;96851.00;;;5.12;100.00
28606;BME280;46498;49.968;7.754;2023-02-22T03:29:57;96856.00;;;5.03;100.00
28606;BME280;46498;49.968;7.754;2023-02-22T03:35:08;96853.00;;;5.03;100.00
28606;BME280;46498;49.968;7.754;2023-02-22T03:40:15;96840.00;;;5.12;100.00
28606;BME280;46498;49.968;7.754;2023-02-22T03:45:20;96839.00;;;5.13;100.00
28606;BME280;46498;49.968;7.754;2023-02-22T03:50:28;96836.00;;;5.13;100.00
28606;BME280;46498;49.968;7.754;2023-02-22T03:55:33;96832.00;;;5.00;100.00
28606;BME280;46498;49.968;7.754;2023-02-22T04:00:34;96826.00;;;4.93;100.00
28606;BME280;46498;49.968;7.754;2023-02-22T04:05:35;96830.00;;;4.68;100.00
28606;BME280;46498;49.968;7.754;2023-02-22T04:10:36;96820.00;;;4.57;100.00
28606;BME280;46498;49.968;7.754;2023-02-22T04:15:37;96820.00;;;4.71;100.00
28606;BME280;46498;49.968;7.754;2023-02-22T04:20:41;96822.00;;;4.80;100.00
28606;BME280;46498;49.968;7.754;2023-02-22T04:25:46;96817.00;;;4.70;100.00
28606;BME280;46498;49.968;7.754;2023-02-22T04:30:50;96821.00;;;4.65;100.00
28606;BME280;46498;49.968;7.754;2023-02-22T04:35:52;96808.00;;;4.64;100.00
28606;BME280;46498;49.968;7.754;2023-02-22T04:40:53;96802.00;;;4.64;100.00
28606;BME280;46498;49.968;7.754;2023-02-22T04:45:55;96807.00;;;4.67;100.00
28606;BME280;46498;49.968;7.754;2023-02-22T04:50:57;96797.00;;;4.67;100.00
28606;BME280;46498;49.968;7.754;2023-02-22T04:55:58;96802.00;;;4.69;100.00
28606;BME280;46498;49.968;7.754;2023-02-22T05:01:00;96794.00;;;4.60;100.00
28606;BME280;46498;49.968;7.754;2023-02-22T05:06:01;96793.00;;;4.63;100.00
28606;BME280;46498;49.968;7.754;2023-02-22T05:11:02;96784.00;;;4.60;100.00
28606;BME280;46498;49.968;7.754;2023-02-22T05:16:04;96788.00;;;4.59;100.00
28606;BME280;46498;49.968;7.754;2023-02-22T05:21:05;96781.00;;;4.64;100.00
28606;BME280;46498;49.968;7.754;2023-02-22T05:26:07;96784.00;;;4.43;100.00
28606;BME280;46498;49.968;7.754;2023-02-22T05:31:09;96777.00;;;4.42;100.00
28606;BME280;46498;49.968;7.754;2023-02-22T05:36:10;96773.00;;;4.48;100.00
28606;BME280;46498;49.968;7.754;2023-02-22T05:41:11;96769.00;;;4.54;100.00
28606;BME280;46498;49.968;7.754;2023-02-22T05:46:13;96765.00;;;4.52;100.00
28606;BME280;46498;49.968;7.754;2023-02-22T05:51:13;96762.00;;;4.20;100.00
28606;BME280;46498;49.968;7.754;2023-02-22T05:56:20;96762.00;;;4.31;100.00
28606;BME280;46498;49.968;7.754;2023-02-22T06:01:21;96757.00;;;4.41;100.00
28606;BME280;46498;49.968;7.754;2023-02-22T06:06:22;96763.00;;;4.45;100.00
28606;BME280;46498;49.968;7.754;2023-02-22T06:11:23;96773.00;;;4.41;100.00
28606;BME280;46498;49.968;7.754;2023-02-22T06:16:24;96770.00;;;4.36;100.00
28606;BME280;46498;49.968;7.754;2023-02-22T06:21:25;96769.00;;;4.36;100.00
28606;BME280;46498;49.968;7.754;2023-02-22T06:26:26;96777.00;;;4.23;100.00
28606;BME280;46498;49.968;7.754;2023-02-22T06:31:27;96773.00;;;4.29;100.00
28606;BME280;46498;49.968;7.754;2023-02-22T06:36:28;96783.00;;;4.32;100.00
28606;BME280;46498;49.968;7.754;2023-02-22T06:41:29;96793.00;;;4.16;100.00
28606;BME280;46498;49.968;7.754;2023-02-22T06:46:30;96792.00;;;4.14;100.00
28606;BME280;46498;49.968;7.754;2023-02-22T06:51:35;96793.00;;;4.16;100.00
28606;BME280;46498;49.968;7.754;2023-02-22T06:56:37;96797.00;;;4.22;100.00
28606;BME280;46498;49.968;7.754;2023-02-22T07:01:41;96802.00;;;4.38;100.00
28606;BME280;46498;49.968;7.754;2023-02-22T07:06:46;96801.00;;;4.50;100.00
28606;BME280;46498;49.968;7.754;2023-02-22T07:11:47;96802.00;;;4.64;100.00
28606;BME280;46498;49.968;7.754;2023-02-22T07:16:48;96806.00;;;4.80;100.00
28606;BME280;46498;49.968;7.754;2023-02-22T07:21:48;96809.00;;;4.94;100.00
28606;BME280;46498;49.968;7.754;2023-02-22T07:26:50;96803.00;;;5.09;100.00
28606;BME280;46498;49.968;7.754;2023-02-22T07:31:51;96801.00;;;5.15;100.00
28606;BME280;46498;49.968;7.754;2023-02-22T07:36:52;96800.00;;;5.17;100.00
28606;BME280;46498;49.968;7.754;2023-02-22T07:41:53;96812.00;;;5.22;100.00
28606;BME280;46498;49.968;7.754;2023-02-22T07:46:57;96816.00;;;5.40;100.00
28606;BME280;46498;49.968;7.754;2023-02-22T07:51:58;96809.00;;;5.72;100.00
28606;BME280;46498;49.968;7.754;2023-02-22T07:56:58;96810.00;;;6.15;100.00
28606;BME280;46498;49.968;7.754;2023-02-22T08:01:59;96813.00;;;6.33;100.00
28606;BME280;46498;49.968;7.754;2023-02-22T08:07:00;96815.00;;;6.57;100.00
28606;BME280;46498;49.968;7.754;2023-02-22T08:12:04;96805.00;;;6.79;100.00
28606;BME280;46498;49.968;7.754;2023-02-22T08:17:05;96808.00;;;6.74;100.00
28606;BME280;46498;49.968;7.754;2023-02-22T08:22:09;96814.00;;;6.78;100.00
28606;BME280;46498;49.968;7.754;2023-02-22T08:27:09;96804.00;;;6.85;100.00
28606;BME280;46498;49.968;7.754;2023-02-22T08:32:10;96803.00;;;6.86;100.00
28606;BME280;46498;49.968;7.754;2023-02-22T08:37:13;96807.00;;;7.03;100.00
28606;BME280;46498;49.968;7.754;2023-02-22T08:42:16;96802.00;;;7.09;100.00
28606;BME280;46498;49.968;7.754;2023-02-22T08:47:17;96806.00;;;6.85;100.00
28606;BME280;46498;49.968;7.754;2023-02-22T08:52:19;96804.00;;;6.85;100.00
28606;BME280;46498;49.968;7.754;2023-02-22T08:57:21;96814.00;;;6.93;100.00
28606;BME280;46498;49.968;7.754;2023-02-22T09:02:22;96813.00;;;6.76;100.00
28606;BME280;46498;49.968;7.754;2023-02-22T09:07:24;96812.00;;;6.80;100.00
28606;BME280;46498;49.968;7.754;2023-02-22T09:12:25;96815.00;;;6.90;100.00
28606;BME280;46498;49.968;7.754;2023-02-22T09:17:26;96801.00;;;6.92;100.00
28606;BME280;46498;49.968;7.754;2023-02-22T09:22:27;96812.00;;;6.73;100.00
28606;BME280;46498;49.968;7.754;2023-02-22T09:27:30;96796.00;;;6.66;100.00
28606;BME280;46498;49.968;7.754;2023-02-22T09:32:31;96792.00;;;6.51;100.00
28606;BME280;46498;49.968;7.754;2023-02-22T09:37:32;96782.00;;;6.56;100.00
28606;BME280;46498;49.968;7.754;2023-02-22T09:42:38;96773.00;;;6.57;100.00
28606;BME280;46498;49.968;7.754;2023-02-22T09:47:46;96778.00;;;6.39;100.00
28606;BME280;46498;49.968;7.754;2023-02-22T09:52:55;96777.00;;;6.29;100.00
28606;BME280;46498;49.968;7.754;2023-02-22T09:58:02;96779.00;;;6.34;100.00
28606;BME280;46498;49.968;7.754;2023-02-22T10:04:44;96776.00;;;6.41;100.00
28606;BME280;46498;49.968;7.754;2023-02-22T10:09:48;96771.00;;;6.48;100.00
28606;BME280;46498;49.968;7.754;2023-02-22T10:16:42;96769.00;;;6.63;100.00
28606;BME280;46498;49.968;7.754;2023-02-22T10:22:33;96776.00;;;6.71;100.00
28606;BME280;46498;49.968;7.754;2023-02-22T10:27:47;96785.00;;;6.85;100.00
28606;BME280;46498;49.968;7.754;2023-02-22T10:33:32;96785.00;;;7.30;100.00
28606;BME280;46498;49.968;7.754;2023-02-22T10:38:34;96779.00;;;6.85;100.00
28606;BME280;46498;49.968;7.754;2023-02-22T10:43:36;96773.00;;;7.13;100.00
28606;BME280;46498;49.968;7.754;2023-02-22T10:48:39;96766.00;;;7.22;100.00
28606;BME280;46498;49.968;7.754;2023-02-22T10:53:43;96770.00;;;7.75;100.00
28606;BME280;46498;49.968;7.754;2023-02-22T10:58:52;96766.00;;;8.19;100.00
28606;BME280;46498;49.968;7.754;2023-02-22T11:04:16;96754.00;;;8.57;100.00
28606;BME280;46498;49.968;7.754;2023-02-22T11:09:20;96758.00;;;8.99;100.00
28606;BME280;46498;49.968;7.754;2023-02-22T11:14:27;96749.00;;;9.15;100.00
28606;BME280;46498;49.968;7.754;2023-02-22T11:19:30;96758.00;;;9.32;100.00
28606;BME280;46498;49.968;7.754;2023-02-22T11:24:32;96748.00;;;9.20;100.00
28606;BME280;46498;49.968;7.754;2023-02-22T11:29:49;96746.00;;;9.08;99.92
28606;BME280;46498;49.968;7.754;2023-02-22T11:35:16;96741.00;;;9.29;100.00
28606;BME280;46498;49.968;7.754;2023-02-22T11:40:21;96743.00;;;9.94;98.27
28606;BME280;46498;49.968;7.754;2023-02-22T11:45:22;96742.00;;;9.70;100.00
28606;BME280;46498;49.968;7.754;2023-02-22T11:50:40;96735.00;;;9.71;97.40
28606;BME280;46498;49.968;7.754;2023-02-22T11:56:13;96725.00;;;9.37;97.13
28606;BME280;46498;49.968;7.754;2023-02-22T12:08:19;96717.00;;;9.45;98.28
28606;BME280;46498;49.968;7.754;2023-02-22T12:14:02;96713.00;;;9.34;100.00
28606;BME280;46498;49.968;7.754;2023-02-22T12:19:14;96708.00;;;8.87;100.00
28606;BME280;46498;49.968;7.754;2023-02-22T12:24:29;96707.00;;;9.01;100.00
28606;BME280;46498;49.968;7.754;2023-02-22T12:29:42;96719.00;;;9.18;100.00
28606;BME280;46498;49.968;7.754;2023-02-22T12:34:56;96701.00;;;8.72;100.00
28606;BME280;46498;49.968;7.754;2023-02-22T12:40:15;96701.00;;;8.76;100.00
28606;BME280;46498;49.968;7.754;2023-02-22T12:45:44;96702.00;;;8.76;100.00
28606;BME280;46498;49.968;7.754;2023-02-22T12:50:52;96694.00;;;8.83;100.00
28606;BME280;46498;49.968;7.754;2023-02-22T12:58:32;96698.00;;;9.05;100.00
28606;BME280;46498;49.968;7.754;2023-02-22T13:03:40;96704.00;;;9.35;100.00
28606;BME280;46498;49.968;7.754;2023-02-22T13:17:08;96699.00;;;8.96;100.00
28606;BME280;46498;49.968;7.754;2023-02-22T13:22:39;96698.00;;;9.58;100.00
28606;BME280;46498;49.968;7.754;2023-02-22T13:27:58;96692.00;;;9.75;98.69
28606;BME280;46498;49.968;7.754;2023-02-22T13:52:57;96678.00;;;9.80;99.57
28606;BME280;46498;49.968;7.754;2023-02-22T13:58:08;96674.00;;;9.85;99.08
28606;BME280;46498;49.968;7.754;2023-02-22T14:03:28;96671.00;;;9.98;98.40
28606;BME280;46498;49.968;7.754;2023-02-22T14:08:39;96666.00;;;10.11;97.53
28606;BME280;46498;49.968;7.754;2023-02-22T14:14:16;96670.00;;;10.14;97.06
28606;BME280;46498;49.968;7.754;2023-02-22T14:19:18;96672.00;;;10.19;98.20
28606;BME280;46498;49.968;7.754;2023-02-22T14:24:23;96669.00;;;9.99;97.66
28606;BME280;46498;49.968;7.754;2023-02-22T14:29:24;96667.00;;;10.05;98.94
28606;BME280;46498;49.968;7.754;2023-02-22T14:37:58;96674.00;;;9.99;99.01
28606;BME280;46498;49.968;7.754;2023-02-22T14:43:09;96674.00;;;9.67;100.00
28606;BME280;46498;49.968;7.754;2023-02-22T14:48:58;96668.00;;;9.55;100.00
28606;BME280;46498;49.968;7.754;2023-02-22T14:54:17;96675.00;;;9.48;100.00
28606;BME280;46498;49.968;7.754;2023-02-22T14:59:25;96666.00;;;9.52;100.00
28606;BME280;46498;49.968;7.754;2023-02-22T15:04:29;96669.00;;;9.57;100.00
28606;BME280;46498;49.968;7.754;2023-02-22T15:09:30;96660.00;;;9.61;100.00
28606;BME280;46498;49.968;7.754;2023-02-22T15:14:38;96660.00;;;9.72;100.00
28606;BME280;46498;49.968;7.754;2023-02-22T15:19:41;96655.00;;;9.76;100.00
28606;BME280;46498;49.968;7.754;2023-02-22T15:24:42;96662.00;;;9.68;100.00
28606;BME280;46498;49.968;7.754;2023-02-22T15:29:43;96665.00;;;9.66;100.00
28606;BME280;46498;49.968;7.754;2023-02-22T15:34:45;96673.00;;;9.63;100.00
28606;BME280;46498;49.968;7.754;2023-02-22T15:39:46;96675.00;;;9.54;100.00
28606;BME280;46498;49.968;7.754;2023-02-22T15:44:48;96667.00;;;9.41;100.00
28606;BME280;46498;49.968;7.754;2023-02-22T15:50:18;96665.00;;;9.17;100.00
28606;BME280;46498;49.968;7.754;2023-02-22T15:55:36;96668.00;;;9.07;100.00
28606;BME280;46498;49.968;7.754;2023-02-22T16:00:43;96661.00;;;8.90;100.00
28606;BME280;46498;49.968;7.754;2023-02-22T16:05:49;96659.00;;;8.80;100.00
28606;BME280;46498;49.968;7.754;2023-02-22T16:11:06;96662.00;;;8.78;100.00
28606;BME280;46498;49.968;7.754;2023-02-22T16:16:33;96663.00;;;8.77;100.00
28606;BME280;46498;49.968;7.754;2023-02-22T16:21:56;96662.00;;;8.75;100.00
28606;BME280;46498;49.968;7.754;2023-02-22T16:27:18;96658.00;;;8.74;100.00
28606;BME280;46498;49.968;7.754;2023-02-22T16:32:19;96666.00;;;8.72;100.00
28606;BME280;46498;49.968;7.754;2023-02-22T16:37:21;96665.00;;;8.67;100.00
28606;BME280;46498;49.968;7.754;2023-02-22T16:42:23;96675.00;;;8.55;100.00
28606;BME280;46498;49.968;7.754;2023-02-22T16:47:24;96678.00;;;8.68;100.00
28606;BME280;46498;49.968;7.754;2023-02-22T16:52:24;96672.00;;;8.76;100.00
28606;BME280;46498;49.968;7.754;2023-02-22T16:57:29;96671.00;;;8.75;100.00
28606;BME280;46498;49.968;7.754;2023-02-22T17:02:31;96672.00;;;8.61;100.00
28606;BME280;46498;49.968;7.754;2023-02-22T17:07:32;96678.00;;;8.54;100.00
28606;BME280;46498;49.968;7.754;2023-02-22T17:12:33;96678.00;;;8.50;100.00
28606;BME280;46498;49.968;7.754;2023-02-22T17:17:34;96674.00;;;8.53;100.00
28606;BME280;46498;49.968;7.754;2023-02-22T17:22:35;96678.00;;;8.52;100.00
28606;BME280;46498;49.968;7.754;2023-02-22T17:27:35;96680.00;;;8.48;100.00
28606;BME280;46498;49.968;7.754;2023-02-22T17:32:36;96679.00;;;8.47;100.00
28606;BME280;46498;49.968;7.754;2023-02-22T17:37:37;96675.00;;;8.55;100.00
28606;BME280;46498;49.968;7.754;2023-02-22T17:42:39;96678.00;;;8.19;100.00
28606;BME280;46498;49.968;7.754;2023-02-22T17:47:42;96678.00;;;8.10;100.00
28606;BME280;46498;49.968;7.754;2023-02-22T17:52:43;96683.00;;;8.08;100.00
28606;BME280;46498;49.968;7.754;2023-02-22T17:57:45;96678.00;;;8.00;100.00
28606;BME280;46498;49.968;7.754;2023-02-22T18:02:48;96677.00;;;7.97;100.00
28606;BME280;46498;49.968;7.754;2023-02-22T18:07:49;96685.00;;;7.88;100.00
28606;BME280;46498;49.968;7.754;2023-02-22T18:12:50;96687.00;;;7.89;100.00
28606;BME280;46498;49.968;7.754;2023-02-22T18:17:53;96678.00;;;7.84;100.00
28606;BME280;46498;49.968;7.754;2023-02-22T18:22:58;96694.00;;;7.75;100.00
28606;BME280;46498;49.968;7.754;2023-02-22T18:28:01;96700.00;;;7.68;100.00
28606;BME280;46498;49.968;7.754;2023-02-22T18:33:02;96679.00;;;7.71;100.00
28606;BME280;46498;49.968;7.754;2023-02-22T18:38:04;96687.00;;;7.67;100.00
28606;BME280;46498;49.968;7.754;2023-02-22T18:43:04;96689.00;;;7.74;100.00
28606;BME280;46498;49.968;7.754;2023-02-22T18:48:05;96686.00;;;7.72;100.00
28606;BME280;46498;49.968;7.754;2023-02-22T18:53:06;96695.00;;;7.81;100.00
28606;BME280;46498;49.968;7.754;2023-02-22T18:58:07;96688.00;;;7.82;100.00
28606;BME280;46498;49.968;7.754;2023-02-22T19:03:10;96690.00;;;7.85;100.00
28606;BME280;46498;49.968;7.754;2023-02-22T19:08:11;96691.00;;;7.92;100.00
28606;BME280;46498;49.968;7.754;2023-02-22T19:13:12;96686.00;;;7.92;100.00
28606;BME280;46498;49.968;7.754;2023-02-22T19:18:13;96679.00;;;7.93;100.00
28606;BME280;46498;49.968;7.754;2023-02-22T19:23:14;96682.00;;;8.01;100.00
28606;BME280;46498;49.968;7.754;2023-02-22T19:28:15;96685.00;;;7.90;100.00
28606;BME280;46498;49.968;7.754;2023-02-22T19:33:16;96689.00;;;7.91;100.00
28606;BME280;46498;49.968;7.754;2023-02-22T19:38:16;96675.00;;;7.85;100.00
28606;BME280;46498;49.968;7.754;2023-02-22T19:43:17;96668.00;;;7.83;100.00
28606;BME280;46498;49.968;7.754;2023-02-22T19:48:18;96676.00;;;7.84;100.00
28606;BME280;46498;49.968;7.754;2023-02-22T19:53:20;96679.00;;;7.85;100.00
28606;BME280;46498;49.968;7.754;2023-02-22T19:58:21;96678.00;;;7.98;100.00
28606;BME280;46498;49.968;7.754;2023-02-22T20:03:22;96675.00;;;8.06;100.00
28606;BME280;46498;49.968;7.754;2023-02-22T20:08:25;96670.00;;;8.19;100.00
28606;BME280;46498;49.968;7.754;2023-02-22T20:13:26;96677.00;;;8.25;100.00
28606;BME280;46498;49.968;7.754;2023-02-22T20:18:28;96683.00;;;8.25;100.00
28606;BME280;46498;49.968;7.754;2023-02-22T20:23:29;96680.00;;;8.31;100.00
28606;BME280;46498;49.968;7.754;2023-02-22T20:28:30;96680.00;;;8.38;100.00
28606;BME280;46498;49.968;7.754;2023-02-22T20:33:31;96691.00;;;8.38;100.00
28606;BME280;46498;49.968;7.754;2023-02-22T20:38:32;96685.00;;;8.41;100.00
28606;BME280;46498;49.968;7.754;2023-02-22T20:43:33;96695.00;;;8.33;100.00
28606;BME280;46498;49.968;7.754;2023-02-22T20:48:35;96684.00;;;8.24;100.00
28606;BME280;46498;49.968;7.754;2023-02-22T20:53:37;96686.00;;;8.22;100.00
28606;BME280;46498;49.968;7.754;2023-02-22T20:58:41;96689.00;;;8.15;100.00
28606;BME280;46498;49.968;7.754;2023-02-22T21:03:42;96682.00;;;8.08;100.00
28606;BME280;46498;49.968;7.754;2023-02-22T21:08:44;96691.00;;;7.87;100.00
28606;BME280;46498;49.968;7.754;2023-02-22T21:13:49;96695.00;;;7.86;100.00
28606;BME280;46498;49.968;7.754;2023-02-22T21:18:51;96695.00;;;7.86;100.00
28606;BME280;46498;49.968;7.754;2023-02-22T21:23:54;96689.00;;;7.86;100.00
28606;BME280;46498;49.968;7.754;2023-02-22T21:29:00;96698.00;;;8.00;100.00
28606;BME280;46498;49.968;7.754;2023-02-22T21:34:03;96691.00;;;8.17;100.00
28606;BME280;46498;49.968;7.754;2023-02-22T21:39:04;96691.00;;;8.06;100.00
28606;BME280;46498;49.968;7.754;2023-02-22T21:44:50;96690.00;;;8.00;100.00
28606;BME280;46498;49.968;7.754;2023-02-22T21:49:56;96689.00;;;8.02;100.00
28606;BME280;46498;49.968;7.754;2023-02-22T21:54:56;96693.00;;;8.07;100.00
28606;BME280;46498;49.968;7.754;2023-02-22T21:59:57;96688.00;;;8.09;100.00
28606;BME280;46498;49.968;7.754;2023-02-22T22:04:58;96692.00;;;8.10;100.00
28606;BME280;46498;49.968;7.754;2023-02-22T22:09:59;96692.00;;;8.14;100.00
28606;BME280;46498;49.968;7.754;2023-02-22T22:15:00;96686.00;;;8.07;100.00
28606;BME280;46498;49.968;7.754;2023-02-22T22:20:01;96694.00;;;8.08;100.00
28606;BME280;46498;49.968;7.754;2023-02-22T22:25:05;96681.00;;;8.14;100.00
28606;BME280;46498;49.968;7.754;2023-02-22T22:30:07;96684.00;;;8.12;100.00
28606;BME280;46498;49.968;7.754;2023-02-22T22:35:10;96686.00;;;8.19;100.00
28606;BME280;46498;49.968;7.754;2023-02-22T22:40:14;96679.00;;;8.19;100.00
28606;BME280;46498;49.968;7.754;2023-02-22T22:45:15;96683.00;;;8.22;100.00
28606;BME280;46498;49.968;7.754;2023-02-22T22:50:18;96679.00;;;8.24;100.00
28606;BME280;46498;49.968;7.754;2023-02-22T22:55:18;96679.00;;;8.26;100.00
28606;BME280;46498;49.968;7.754;2023-02-22T23:00:19;96686.00;;;8.20;100.00
28606;BME280;46498;49.968;7.754;2023-02-22T23:05:40;96682.00;;;8.25;100.00
28606;BME280;46498;49.968;7.754;2023-02-22T23:10:41;96676.00;;;8.21;100.00
28606;BME280;46498;49.968;7.754;2023-02-22T23:15:43;96676.00;;;8.19;100.00
28606;BME280;46498;49.968;7.754;2023-02-22T23:20:48;96673.00;;;8.15;100.00
28606;BME280;46498;49.968;7.754;2023-02-22T23:26:09;96676.00;;;8.16;100.00
28606;BME280;46498;49.968;7.754;2023-02-22T23:31:17;96676.00;;;8.21;100.00
28606;BME280;46498;49.968;7.754;2023-02-22T23:36:19;96682.00;;;8.23;100.00
28606;BME280;46498;49.968;7.754;2023-02-22T23:41:20;96682.00;;;8.21;100.00
28606;BME280;46498;49.968;7.754;2023-02-22T23:46:24;96680.00;;;8.11;100.00
28606;BME280;46498;49.968;7.754;2023-02-22T23:51:28;96681.00;;;8.10;100.00
28606;BME280;46498;49.968;7.754;2023-02-22T23:56:31;96687.00;;;8.12;100.00
